Pagina principale
METAR-TAF:

METAR-TAF

Aeroporti :

Meiringen, Svizzera

latitudine: 46-44-25N, longitudine: 8-06-36E, altezza: 577 m

Osservazione

Il bollettino è stato emesso 8 minuti fa, alle 14:20 UTC
Vento 7 kt da direzioni variabili con raffiche fino a 22 kt
Temperature 8°C
Umidità 42%
Pressione 1026 hPa
Visibilità 10 km o più
Poco nuvoloso ad un'altezza di 5200 ft

METAR: LSMM 261420Z VRB07G22KT 9999 FEW052 08/M04 Q1026 RMK BLU+

Ora: 15:28 (14:28 UTC)


TAF: mancante

Osservazioni e previsioni meteorologiche di più di 4000 aeroporti (messaggi METAR e TAF).

Le stazioni disponibili sono rappresentate dai dischi gialli e rossi sulla carta.

Puntare il mouse per vedere il nome della stazione.

Clicca sopra per visualizzare le osservazioni e previsioni meteorologiche.

Per cambiare la mappa : fare clic sui pulsanti verdi con una croce nera per ingrandire, il pulsante verde con un trattino per diminuire, o sulla freccia verde per le mappe adiacenti.


METAR-TAF: